Terminal Aerodrome Forecast
Issued by NWS

Home | Current Version | Previous Version | Text Only | Print | Product List | Glossary On
Versions: 1 2 3 4 5 6 7 8 9 10 11 12 13 14 15
000
FTPQ31 PGUM 052322
TAFGUM
TAF

TAF
PGWT 052322Z 0600/0624 08011KT P6SM VCSH FEW015 SCT040
     FM060100 08016KT P6SM VCSH FEW015 SCT050
      TEMPO 0601/0604 4SM SHRA SCT016 BKN030=

USA.gov is the U.S. government's official web portal to all federal, state and local government web resources and services.